Time;durP1;ratioP1;P1;durP2;ratioP2;P2;SDS_P1;SDS_P2;PMS_P1;PMS_P2;Temp;Humidity;BMP_temperature;BMP_pressure;BME280_temperature;BME280_humidity;BME280_pressure;Samples;Min_cycle;Max_cycle;Signal;HPM_P1;HPM_P2
2023/09/14 00:00:22;;;;;;;8.82;3.70;;;;;;;11.11;100.00;102239.16;4993757;28;20034;-77
2023/09/14 00:02:48;;;;;;;6.72;3.10;;;;;;;11.19;100.00;102265.50;4993573;28;20037;-77
2023/09/14 00:05:14;;;;;;;6.07;3.20;;;;;;;11.03;100.00;102251.56;4993821;28;20018;-77
2023/09/14 00:07:40;;;;;;;8.88;3.30;;;;;;;11.07;100.00;102260.84;4993268;28;20079;-77
2023/09/14 00:10:06;;;;;;;5.38;3.17;;;;;;;10.99;100.00;102257.75;4993437;28;20117;-78
2023/09/14 00:12:31;;;;;;;8.38;3.47;;;;;;;11.05;100.00;102269.59;4993048;28;20065;-76
2023/09/14 00:14:57;;;;;;;7.38;3.58;;;;;;;10.98;100.00;102262.97;4993361;28;20022;-77
2023/09/14 00:17:22;;;;;;;7.10;3.55;;;;;;;11.00;100.00;102268.91;4993396;28;20034;-78
2023/09/14 00:19:47;;;;;;;7.18;3.30;;;;;;;10.98;100.00;102271.56;4993242;28;20030;-77
2023/09/14 00:22:13;;;;;;;7.40;3.40;;;;;;;10.98;100.00;102270.72;4992914;28;20379;-77
2023/09/14 00:24:38;;;;;;;7.90;3.63;;;;;;;10.88;100.00;102260.78;4993496;28;20019;-74
2023/09/14 00:27:03;;;;;;;8.80;3.58;;;;;;;10.91;100.00;102268.44;4993116;28;20467;-75
2023/09/14 00:29:29;;;;;;;8.18;3.78;;;;;;;10.90;100.00;102271.03;4993134;28;20110;-78
2023/09/14 00:31:55;;;;;;;8.30;3.70;;;;;;;10.88;100.00;102268.53;4993412;28;20460;-78
2023/09/14 00:34:20;;;;;;;8.40;4.18;;;;;;;10.88;100.00;102270.28;4993124;28;20034;-75
2023/09/14 00:36:45;;;;;;;7.65;3.90;;;;;;;10.83;100.00;102267.91;4993144;28;20042;-78
2023/09/14 00:39:11;;;;;;;8.38;3.75;;;;;;;10.75;100.00;102263.94;4993050;28;20044;-77
2023/09/14 00:41:36;;;;;;;9.32;4.07;;;;;;;10.81;100.00;102272.25;4993129;28;20031;-79
2023/09/14 00:44:02;;;;;;;7.63;3.95;;;;;;;10.81;100.00;102276.59;4992989;28;20030;-78
2023/09/14 00:46:30;;;;;;;8.48;4.07;;;;;;;10.73;100.00;102258.00;4993233;28;20075;-77
2023/09/14 00:48:57;;;;;;;7.80;4.00;;;;;;;10.65;100.00;102250.56;4992661;28;20034;-75
2023/09/14 00:51:23;;;;;;;8.65;4.10;;;;;;;10.77;100.00;102277.63;4974434;28;20403;-75
2023/09/14 00:53:50;;;;;;;10.73;3.95;;;;;;;10.74;100.00;102275.19;5059254;28;20038;-75
2023/09/14 00:56:16;;;;;;;9.32;4.50;;;;;;;10.74;100.00;102270.00;4992708;28;20077;-77
2023/09/14 00:58:41;;;;;;;8.50;4.50;;;;;;;10.71;100.00;102272.69;4992631;28;20077;-75
2023/09/14 01:01:07;;;;;;;9.02;4.38;;;;;;;10.67;100.00;102273.75;4992705;28;20468;-75
2023/09/14 01:03:33;;;;;;;9.25;4.57;;;;;;;10.63;100.00;102267.88;4992619;28;20026;-78
2023/09/14 01:05:59;;;;;;;7.07;3.70;;;;;;;10.56;100.00;102267.25;4992479;28;20030;-77
2023/09/14 01:08:25;;;;;;;6.20;3.72;;;;;;;10.54;100.00;102269.06;4992455;28;20486;-78
2023/09/14 01:10:51;;;;;;;6.55;3.35;;;;;;;10.41;100.00;102260.09;4992288;28;20079;-75
2023/09/14 01:13:27;;;;;;;8.88;4.07;;;;;;;10.47;100.00;102277.94;4992441;28;20034;-75
2023/09/14 01:15:58;;;;;;;7.35;3.90;;;;;;;10.44;100.00;102272.91;4992334;28;20033;-74
2023/09/14 01:18:31;;;;;;;8.30;3.78;;;;;;;10.34;100.00;102269.00;4992368;28;20528;-75
2023/09/14 01:21:29;;;;;;;7.07;3.55;;;;;;;10.39;100.00;102280.00;4992208;28;20045;-77
2023/09/14 01:24:13;;;;;;;9.13;3.90;;;;;;;10.38;100.00;102280.06;4992124;28;20102;-74
2023/09/14 01:26:40;;;;;;;6.80;3.60;;;;;;;10.26;100.00;102265.88;4992403;28;20026;-75
2023/09/14 01:29:05;;;;;;;8.00;3.90;;;;;;;10.29;100.00;102278.66;4992476;28;20054;-75
2023/09/14 01:31:31;;;;;;;7.95;3.75;;;;;;;10.10;100.00;102254.41;4991959;28;20065;-78
2023/09/14 01:33:57;;;;;;;9.00;3.83;;;;;;;10.02;100.00;102244.38;4992103;28;20109;-75
2023/09/14 01:36:32;;;;;;;7.18;3.22;;;;;;;10.06;100.00;102259.72;4991992;28;20027;-75
2023/09/14 01:39:00;;;;;;;9.07;3.42;;;;;;;10.06;100.00;102257.13;4992000;28;20049;-75
2023/09/14 01:41:26;;;;;;;7.00;3.85;;;;;;;10.16;100.00;102274.84;4992002;28;20448;-76
2023/09/14 01:43:53;;;;;;;8.15;3.63;;;;;;;10.07;100.00;102266.56;4991895;28;20026;-76
2023/09/14 01:46:22;;;;;;;8.65;3.78;;;;;;;10.09;100.00;102266.47;4992126;28;20022;-74
2023/09/14 01:48:47;;;;;;;7.28;3.70;;;;;;;10.01;100.00;102269.34;4991969;28;20109;-74
2023/09/14 01:51:12;;;;;;;9.13;4.30;;;;;;;9.95;100.00;102254.13;4991624;28;20565;-75
2023/09/14 01:53:38;;;;;;;7.82;4.20;;;;;;;9.98;100.00;102264.31;4991927;28;20080;-74
2023/09/14 01:56:03;;;;;;;8.45;3.97;;;;;;;9.99;100.00;102278.06;4991758;28;20031;-75
2023/09/14 01:58:29;;;;;;;7.22;3.70;;;;;;;9.93;100.00;102270.53;4991509;28;20487;-75
2023/09/14 02:00:57;;;;;;;7.35;4.18;;;;;;;9.88;100.00;102269.88;4973963;28;20168;-76
2023/09/14 02:03:22;;;;;;;6.18;3.95;;;;;;;9.77;100.00;102247.91;4991527;28;20105;-74
2023/09/14 02:05:58;;;;;;;8.40;4.20;;;;;;;9.85;100.00;102268.25;4991543;28;20148;-75
2023/09/14 02:08:23;;;;;;;6.88;3.80;;;;;;;9.76;100.00;102256.53;4991443;28;20033;-74
2023/09/14 02:10:49;;;;;;;6.47;3.60;;;;;;;9.79;100.00;102258.16;4991482;28;20035;-75
2023/09/14 02:13:14;;;;;;;8.02;3.50;;;;;;;9.75;100.00;102248.84;5054875;28;20080;-75
2023/09/14 02:15:40;;;;;;;7.15;3.90;;;;;;;9.74;100.00;102250.59;4990517;28;20116;-76
2023/09/14 02:18:05;;;;;;;6.72;3.38;;;;;;;9.74;100.00;102257.50;5055233;28;20051;-75
2023/09/14 02:20:31;;;;;;;5.47;3.67;;;;;;;9.66;100.00;102250.03;4989006;28;20026;-75
2023/09/14 02:22:57;;;;;;;6.40;3.67;;;;;;;9.63;100.00;102238.97;5038160;28;20039;-74
2023/09/14 02:25:22;;;;;;;7.68;4.07;;;;;;;9.68;100.00;102249.97;4987561;28;20029;-75
2023/09/14 02:27:47;;;;;;;6.25;3.60;;;;;;;9.64;100.00;102241.50;4989281;28;20057;-77
2023/09/14 02:30:13;;;;;;;9.60;4.25;;;;;;;9.69;100.00;102249.06;4991512;28;20391;-74
2023/09/14 02:32:38;;;;;;;9.90;3.92;;;;;;;9.69;100.00;102255.06;4991453;28;20023;-74
2023/09/14 02:35:04;;;;;;;8.65;3.95;;;;;;;9.70;100.00;102255.91;5054830;28;20031;-75
2023/09/14 02:37:29;;;;;;;8.30;4.05;;;;;;;9.59;100.00;102237.41;5006535;23;20030;-75
2023/09/14 02:39:54;;;;;;;7.10;3.88;;;;;;;9.60;100.00;102246.81;5074542;28;20036;-75
2023/09/14 02:42:20;;;;;;;8.50;4.05;;;;;;;9.64;100.00;102243.25;5093079;28;20101;-75
2023/09/14 02:44:45;;;;;;;8.70;4.63;;;;;;;9.56;100.00;102233.22;5093455;28;20031;-76
2023/09/14 02:47:11;;;;;;;6.05;3.80;;;;;;;9.57;100.00;102239.19;5075210;28;20477;-76
2023/09/14 02:49:36;;;;;;;7.63;4.25;;;;;;;9.55;100.00;102238.44;5093849;28;20024;-74
2023/09/14 02:52:01;;;;;;;7.07;4.10;;;;;;;9.55;100.00;102241.00;5113512;28;20063;-77
2023/09/14 02:54:27;;;;;;;9.35;4.63;;;;;;;9.62;100.00;102251.00;5113252;28;20035;-75
2023/09/14 02:56:52;;;;;;;8.13;4.82;;;;;;;9.58;100.00;102241.72;5113468;28;20106;-75
2023/09/14 02:59:17;;;;;;;7.68;3.90;;;;;;;9.57;100.00;102252.94;5113417;28;20055;-76
2023/09/14 03:01:44;;;;;;;6.57;4.22;;;;;;;9.39;100.00;102215.75;5113465;28;20161;-73
2023/09/14 03:04:09;;;;;;;8.85;4.50;;;;;;;9.48;100.00;102235.22;5113501;28;20055;-74
2023/09/14 03:06:35;;;;;;;9.77;4.07;;;;;;;9.43;100.00;102219.91;5113490;28;20148;-74
2023/09/14 03:09:00;;;;;;;8.98;5.13;;;;;;;9.47;100.00;102229.22;5113107;28;20023;-73
2023/09/14 03:11:26;;;;;;;10.02;4.10;;;;;;;9.44;100.00;102241.38;5199166;22;20047;-74
2023/09/14 03:13:51;;;;;;;8.27;4.00;;;;;;;9.18;100.00;102196.75;5110782;28;20113;-74
2023/09/14 03:16:17;;;;;;;7.03;3.95;;;;;;;9.42;100.00;102245.72;5113206;28;20035;-74
2023/09/14 03:18:42;;;;;;;9.38;4.35;;;;;;;9.41;100.00;102241.47;5094913;28;20016;-74
2023/09/14 03:21:21;;;;;;;8.15;4.00;;;;;;;9.29;100.00;102223.88;5113328;28;20036;-77
2023/09/14 03:23:46;;;;;;;10.90;4.28;;;;;;;9.37;100.00;102248.50;5112571;28;20019;-74
2023/09/14 03:26:13;;;;;;;8.00;4.25;;;;;;;9.32;100.00;102244.38;5112821;28;20106;-75
2023/09/14 03:28:39;;;;;;;9.63;4.55;;;;;;;9.26;100.00;102240.28;5113355;28;20027;-77
2023/09/14 03:31:04;;;;;;;7.97;4.22;;;;;;;9.27;100.00;102254.88;5113028;28;20384;-74
2023/09/14 03:33:29;;;;;;;8.75;4.78;;;;;;;9.27;100.00;102248.88;5113256;28;20410;-74
2023/09/14 03:35:55;;;;;;;7.13;4.30;;;;;;;9.18;100.00;102243.13;5112846;28;20507;-77
2023/09/14 03:38:20;;;;;;;8.32;4.43;;;;;;;9.13;100.00;102232.13;5112629;28;20023;-74
2023/09/14 03:40:46;;;;;;;9.93;4.88;;;;;;;9.20;100.00;102246.50;5093772;28;20515;-75
2023/09/14 03:43:11;;;;;;;9.45;4.50;;;;;;;9.25;100.00;102255.81;5113010;28;20110;-74
2023/09/14 03:45:37;;;;;;;9.85;4.78;;;;;;;9.22;100.00;102253.31;5113230;28;20016;-74
2023/09/14 03:48:04;;;;;;;8.07;4.60;;;;;;;9.11;100.00;102243.38;5112855;28;20024;-74
2023/09/14 03:50:29;;;;;;;8.52;4.30;;;;;;;9.19;100.00;102251.69;5112643;28;20020;-75
2023/09/14 03:52:55;;;;;;;8.98;4.85;;;;;;;9.18;100.00;102252.59;5112909;28;20026;-75
2023/09/14 03:55:21;;;;;;;8.00;4.32;;;;;;;9.13;100.00;102246.75;5112550;28;20016;-75
2023/09/14 03:57:47;;;;;;;6.72;4.32;;;;;;;8.92;100.00;102214.81;5112769;28;20431;-75
2023/09/14 04:00:15;;;;;;;12.25;5.13;;;;;;;9.08;100.00;102241.75;5094263;28;20153;-75
2023/09/14 04:02:41;;;;;;;9.88;4.63;;;;;;;9.10;100.00;102241.72;5112607;28;20468;-75
2023/09/14 04:05:17;;;;;;;11.23;6.07;;;;;;;9.03;100.00;102243.63;5112636;28;20053;-75
2023/09/14 04:07:45;;;;;;;10.98;6.15;;;;;;;9.10;100.00;102247.69;5112735;28;20388;-75
2023/09/14 04:10:11;;;;;;;10.15;5.68;;;;;;;8.99;100.00;102236.91;5112467;28;20511;-77
2023/09/14 04:12:38;;;;;;;8.02;5.57;;;;;;;8.91;100.00;102219.13;5112343;28;20043;-75
2023/09/14 04:15:04;;;;;;;9.75;5.32;;;;;;;9.06;100.00;102248.72;5112772;28;20026;-77
2023/09/14 04:17:29;;;;;;;9.10;5.18;;;;;;;9.05;100.00;102256.50;5112674;28;20384;-75
2023/09/14 04:19:54;;;;;;;9.63;4.97;;;;;;;8.98;100.00;102239.56;5112531;28;20030;-78
2023/09/14 04:22:20;;;;;;;10.18;5.80;;;;;;;9.00;100.00;102243.75;5112437;28;20023;-75
2023/09/14 04:24:45;;;;;;;7.85;4.88;;;;;;;8.99;100.00;102247.22;5114708;28;20492;-76
2023/09/14 04:27:10;;;;;;;7.80;4.68;;;;;;;8.93;100.00;102236.28;5116070;28;20110;-75
2023/09/14 04:29:35;;;;;;;10.00;4.80;;;;;;;8.99;100.00;102251.53;5116485;28;20034;-75
2023/09/14 04:32:01;;;;;;;8.40;4.50;;;;;;;8.80;100.00;102221.25;5116462;28;20026;-78
2023/09/14 04:34:26;;;;;;;8.80;4.63;;;;;;;8.90;100.00;102248.38;5116323;28;20036;-78
2023/09/14 04:36:52;;;;;;;9.73;4.72;;;;;;;8.78;100.00;102228.19;5116754;28;20023;-78
2023/09/14 04:39:17;;;;;;;8.13;4.15;;;;;;;8.92;100.00;102258.63;5116192;28;20098;-77
2023/09/14 04:41:42;;;;;;;9.40;4.65;;;;;;;8.67;100.00;102206.25;5116140;28;20059;-75
2023/09/14 04:44:08;;;;;;;7.13;4.50;;;;;;;8.93;100.00;102252.56;5114212;28;20036;-74
2023/09/14 04:46:33;;;;;;;8.02;4.38;;;;;;;8.93;100.00;102259.47;5115948;28;20031;-75
2023/09/14 04:48:58;;;;;;;7.93;4.93;;;;;;;8.89;100.00;102254.41;5115755;28;20023;-76
2023/09/14 04:51:24;;;;;;;9.48;5.18;;;;;;;8.83;100.00;102243.47;5115757;28;20042;-75
2023/09/14 04:53:52;;;;;;;8.95;5.78;;;;;;;8.88;100.00;102257.06;5115968;28;20046;-75
2023/09/14 04:56:18;;;;;;;10.07;5.63;;;;;;;8.86;100.00;102257.09;5115483;28;20020;-75
2023/09/14 04:58:43;;;;;;;9.07;5.22;;;;;;;8.88;100.00;102257.91;5115706;28;20102;-74
2023/09/14 05:01:08;;;;;;;10.70;5.45;;;;;;;8.84;100.00;102250.31;5115505;28;20111;-74
2023/09/14 05:03:34;;;;;;;11.80;5.65;;;;;;;8.75;100.00;102240.28;5121669;22;20020;-75
2023/09/14 05:05:59;;;;;;;7.25;4.72;;;;;;;8.86;100.00;102257.09;5033454;28;20077;-75
2023/09/14 05:08:25;;;;;;;10.90;5.63;;;;;;;8.78;100.00;102243.63;5031747;28;20520;-76
2023/09/14 05:10:51;;;;;;;9.35;5.55;;;;;;;8.83;100.00;102257.19;5031642;28;20025;-75
2023/09/14 05:13:18;;;;;;;9.75;5.80;;;;;;;8.71;100.00;102237.00;5031739;28;20030;-76
2023/09/14 05:15:44;;;;;;;10.13;5.82;;;;;;;8.74;100.00;102234.31;5031718;28;20120;-81
2023/09/14 05:18:10;;;;;;;11.93;5.72;;;;;;;8.92;100.00;102243.16;5031751;28;20025;-76
2023/09/14 05:20:35;;;;;;;9.43;6.15;;;;;;;9.09;100.00;102250.34;5031665;28;20432;-77
2023/09/14 05:23:00;;;;;;;10.38;6.10;;;;;;;9.01;100.00;102234.28;5013090;28;20034;-76
2023/09/14 05:25:27;;;;;;;9.35;6.28;;;;;;;9.23;100.00;102266.16;5031403;28;20036;-76
2023/09/14 05:27:53;;;;;;;9.20;5.90;;;;;;;9.21;100.00;102260.22;5031427;28;20030;-76
2023/09/14 05:30:21;;;;;;;11.02;6.05;;;;;;;9.33;100.00;102272.69;5031411;28;20033;-78
2023/09/14 05:32:47;;;;;;;10.73;5.40;;;;;;;9.42;100.00;102274.09;5031531;28;20378;-77
2023/09/14 05:35:12;;;;;;;9.07;6.05;;;;;;;9.52;100.00;102275.47;5031239;28;20025;-75
2023/09/14 05:37:38;;;;;;;11.35;5.93;;;;;;;9.55;100.00;102275.38;5031237;28;20033;-75
2023/09/14 05:40:10;;;;;;;9.00;5.30;;;;;;;9.57;100.00;102280.47;5031378;28;20156;-75
2023/09/14 05:42:37;;;;;;;8.48;5.57;;;;;;;9.64;100.00;102282.78;5030877;28;20382;-76
2023/09/14 05:45:05;;;;;;;9.50;5.10;;;;;;;9.61;100.00;102266.56;5031207;28;20032;-76
2023/09/14 05:47:31;;;;;;;8.32;4.70;;;;;;;9.72;100.00;102280.75;5031273;28;20486;-76
2023/09/14 05:49:56;;;;;;;8.68;5.22;;;;;;;9.85;100.00;102285.47;5031072;28;20078;-79
2023/09/14 05:52:22;;;;;;;9.30;5.20;;;;;;;10.02;100.00;102286.50;5031045;28;20025;-77
2023/09/14 05:54:47;;;;;;;9.90;5.53;;;;;;;10.05;100.00;102286.41;5031017;28;20026;-78
2023/09/14 05:57:14;;;;;;;9.80;5.47;;;;;;;10.12;100.00;102279.25;5030838;28;20055;-76
2023/09/14 05:59:39;;;;;;;10.20;5.47;;;;;;;10.26;100.00;102295.13;5091573;28;20543;-77
2023/09/14 06:02:05;;;;;;;11.63;5.80;;;;;;;10.32;100.00;102281.13;5115037;28;20063;-76
2023/09/14 06:04:31;;;;;;;9.77;5.93;;;;;;;10.56;100.00;102295.69;5114310;28;20070;-76
2023/09/14 06:09:31;;;;;;;8.77;5.40;;;;;;;10.83;100.00;102298.06;5630175;22;20045;-76
2023/09/14 06:11:57;;;;;;;12.52;5.90;;;;;;;10.94;100.00;102295.03;5030575;28;20570;-77
2023/09/14 06:14:22;;;;;;;11.75;5.47;;;;;;;10.88;100.00;102253.03;5031026;28;20074;-77
2023/09/14 06:16:48;;;;;;;13.60;5.38;;;;;;;11.23;100.00;102291.25;5030842;28;20388;-76
2023/09/14 06:19:13;;;;;;;10.90;5.97;;;;;;;11.42;100.00;102281.78;5098713;28;20133;-74
2023/09/14 06:21:38;;;;;;;14.60;7.18;;;;;;;11.94;100.00;102280.34;5030261;28;20104;-77
2023/09/14 06:24:04;;;;;;;11.07;6.50;;;;;;;13.36;100.00;102289.00;5012969;28;20061;-77
2023/09/14 06:26:30;;;;;;;13.05;7.15;;;;;;;14.95;100.00;102298.56;5030294;28;20103;-78
2023/09/14 06:28:56;;;;;;;12.40;6.25;;;;;;;16.05;100.00;102300.56;5030753;28;20058;-77
2023/09/14 06:31:24;;;;;;;10.90;5.75;;;;;;;17.08;99.92;102296.53;5030728;28;20044;-77
2023/09/14 06:33:50;;;;;;;11.88;5.38;;;;;;;17.73;92.24;102284.25;5064783;28;20044;-77
2023/09/14 06:36:18;;;;;;;11.60;5.18;;;;;;;18.46;88.06;102306.88;5030674;28;20470;-80
2023/09/14 06:38:45;;;;;;;10.65;5.60;;;;;;;19.04;84.85;102297.38;5030528;28;20424;-75
2023/09/14 06:41:12;;;;;;;8.70;4.55;;;;;;;19.53;82.65;102300.66;5031106;28;20030;-78
2023/09/14 06:43:39;;;;;;;6.78;3.85;;;;;;;19.97;78.82;102297.22;5030522;28;20026;-79
2023/09/14 06:46:09;;;;;;;8.73;4.57;;;;;;;19.89;78.54;102241.91;5060604;23;20080;-78
2023/09/14 06:48:53;;;;;;;8.82;4.15;;;;;;;19.70;82.25;102149.03;5092617;28;20085;-78
2023/09/14 06:51:28;;;;;;;7.70;4.10;;;;;;;19.90;76.81;102178.03;5093135;28;20059;-75
2023/09/14 06:53:56;;;;;;;10.13;4.40;;;;;;;20.72;73.97;102291.97;5093047;28;20024;-75
2023/09/14 06:56:43;;;;;;;8.57;3.70;;;;;;;21.20;76.47;102294.06;5014926;23;20054;-75
2023/09/14 06:59:23;;;;;;;7.75;3.78;;;;;;;20.43;75.55;102151.81;4990954;28;20064;-76
2023/09/14 07:01:54;;;;;;;8.57;4.23;;;;;;;20.81;70.26;102180.91;4990822;28;20025;-76
2023/09/14 07:04:20;;;;;;;8.43;4.30;;;;;;;21.28;68.45;102290.81;4990870;28;20026;-79
2023/09/14 07:06:45;;;;;;;9.85;4.13;;;;;;;20.31;71.81;102295.31;4991099;28;20118;-78
2023/09/14 07:09:11;;;;;;;11.93;5.03;;;;;;;19.33;76.43;102310.88;4990807;28;20022;-76
2023/09/14 07:11:36;;;;;;;11.18;5.70;;;;;;;18.53;81.58;102312.53;4990643;28;20034;-79
2023/09/14 07:14:02;;;;;;;12.32;5.47;;;;;;;17.88;85.19;102289.31;4990772;28;20052;-79
2023/09/14 07:16:28;;;;;;;11.35;6.13;;;;;;;17.53;89.14;102294.38;4990755;28;20387;-79
2023/09/14 07:18:53;;;;;;;10.80;4.50;;;;;;;17.46;92.36;102293.94;4990625;28;20028;-78
2023/09/14 07:21:18;;;;;;;9.93;5.65;;;;;;;17.01;93.68;102275.25;4990297;28;20037;-75
2023/09/14 07:23:44;;;;;;;9.77;5.45;;;;;;;16.98;94.04;102293.72;4990701;28;20080;-75
2023/09/14 07:26:10;;;;;;;12.55;5.65;;;;;;;16.94;94.65;102299.25;4989680;28;20022;-78
2023/09/14 07:28:35;;;;;;;9.80;5.60;;;;;;;16.73;96.83;102297.13;4991669;28;20115;-77
2023/09/14 07:31:05;;;;;;;8.60;5.32;;;;;;;16.75;96.95;102299.63;4990644;28;20065;-77
2023/09/14 07:33:31;;;;;;;10.55;5.93;;;;;;;16.78;97.11;102302.88;4990989;28;20026;-75
2023/09/14 07:35:56;;;;;;;9.50;5.18;;;;;;;16.80;99.47;102287.94;4990294;28;20026;-76
2023/09/14 07:38:22;;;;;;;10.38;5.75;;;;;;;16.83;98.33;102290.38;4989832;28;20074;-77
2023/09/14 07:40:48;;;;;;;10.85;6.25;;;;;;;16.89;98.42;102308.22;4990685;28;20022;-77
2023/09/14 07:43:13;;;;;;;8.60;5.47;;;;;;;16.88;98.30;102316.97;4989083;28;20030;-79
2023/09/14 07:45:39;;;;;;;9.77;5.95;;;;;;;16.80;98.15;102311.41;4990526;28;20487;-79
2023/09/14 07:48:06;;;;;;;9.05;4.70;;;;;;;17.00;98.88;102319.72;4990291;28;20064;-79
2023/09/14 07:50:36;;;;;;;11.52;6.10;;;;;;;16.74;99.15;102277.94;4990666;28;20121;-79
2023/09/14 07:53:03;;;;;;;10.73;5.60;;;;;;;17.04;99.79;102314.19;4991027;28;20437;-79
2023/09/14 07:55:29;;;;;;;15.27;5.40;;;;;;;17.20;98.72;102316.59;5016753;28;20389;-78
2023/09/14 07:57:54;;;;;;;10.63;6.75;;;;;;;16.97;98.01;102302.50;5072338;28;20111;-78
2023/09/14 08:00:20;;;;;;;14.98;7.38;;;;;;;17.01;98.58;102323.97;5075734;28;20029;-77
2023/09/14 08:02:45;;;;;;;11.25;6.43;;;;;;;16.90;98.77;102307.25;5076088;28;20539;-78
2023/09/14 08:05:10;;;;;;;11.38;6.25;;;;;;;16.84;98.22;102285.97;5076343;28;20028;-76
2023/09/14 08:07:36;;;;;;;13.57;7.65;;;;;;;17.02;100.00;102321.31;5076121;28;20027;-75
2023/09/14 08:10:01;;;;;;;13.35;7.53;;;;;;;17.05;99.10;102318.47;5076154;28;20070;-77
2023/09/14 08:12:26;;;;;;;13.02;7.13;;;;;;;16.96;98.38;102299.97;5075851;28;20056;-77
2023/09/14 08:14:52;;;;;;;12.95;7.65;;;;;;;17.11;100.00;102319.84;5074942;28;20107;-76
2023/09/14 08:17:17;;;;;;;14.23;7.78;;;;;;;17.16;99.71;102310.75;5076575;28;20056;-76
2023/09/14 08:19:43;;;;;;;15.00;7.85;;;;;;;17.17;100.00;102316.81;5075860;28;20025;-76
2023/09/14 08:22:08;;;;;;;14.95;7.82;;;;;;;17.02;99.37;102296.97;5075733;28;20412;-76
2023/09/14 08:24:34;;;;;;;14.05;7.72;;;;;;;17.16;99.39;102315.16;5074631;28;20028;-75
2023/09/14 08:27:00;;;;;;;14.65;8.20;;;;;;;17.11;98.92;102305.03;5076311;28;20469;-73
2023/09/14 08:29:31;;;;;;;14.13;8.95;;;;;;;17.15;100.00;102310.88;5077464;28;20027;-74
2023/09/14 08:31:56;;;;;;;15.82;8.68;;;;;;;17.04;99.21;102302.91;5077569;28;20024;-74
2023/09/14 08:37:43;;;;;;;16.02;8.90;;;;;;;16.23;99.47;102160.44;5033019;28;20071;-74
2023/09/14 08:40:51;;;;;;;15.70;8.77;;;;;;;16.10;99.86;102151.72;5032398;28;20029;-74
2023/09/14 08:43:51;;;;;;;12.32;8.63;;;;;;;17.13;100.00;102324.03;5032441;28;20043;-77
2023/09/14 08:46:35;;;;;;;16.70;9.63;;;;;;;16.92;100.00;102270.66;5014725;28;20036;-76
2023/09/14 08:49:06;;;;;;;16.73;9.07;;;;;;;16.43;100.00;102186.97;5032192;28;20025;-76
2023/09/14 08:51:37;;;;;;;14.43;8.65;;;;;;;16.86;100.00;102237.13;5031794;28;20040;-76
2023/09/14 08:54:12;;;;;;;17.27;9.55;;;;;;;17.02;100.00;102242.16;5031951;28;20474;-76
2023/09/14 08:57:05;;;;;;;15.52;9.52;;;;;;;17.53;100.00;102289.16;5032095;28;20497;-76
2023/09/14 09:00:01;;;;;;;15.27;9.00;;;;;;;16.75;98.76;102162.19;4951704;29;20039;-77
2023/09/14 09:06:21;;;;;;;15.27;10.25;;;;;;;16.97;98.26;102163.34;4952159;29;20046;-76
2023/09/14 09:12:37;;;;;;;15.55;9.85;;;;;;;17.41;98.75;102202.88;4950853;29;20539;-76
2023/09/14 09:15:03;;;;;;;19.50;10.50;;;;;;;17.90;95.80;102267.38;4951699;29;20044;-75
2023/09/14 09:17:39;;;;;;;17.10;11.00;;;;;;;18.41;97.49;102318.66;4951826;29;20037;-75
2023/09/14 09:20:23;;;;;;;19.08;10.90;;;;;;;18.57;95.56;102313.94;4951620;29;20031;-76
2023/09/14 09:22:55;;;;;;;16.85;10.88;;;;;;;18.73;92.28;102305.84;4951734;29;20043;-75
2023/09/14 09:25:22;;;;;;;17.27;10.57;;;;;;;18.73;91.15;102306.69;4951658;29;20063;-76
2023/09/14 09:27:56;;;;;;;14.88;9.15;;;;;;;18.68;93.13;102298.34;4951248;29;20054;-76
2023/09/14 09:30:28;;;;;;;16.70;9.02;;;;;;;18.76;90.37;102310.84;4951376;29;20127;-77
2023/09/14 09:32:57;;;;;;;14.88;9.43;;;;;;;18.82;90.06;102310.41;4949548;28;20027;-73
2023/09/14 09:35:25;;;;;;;15.50;10.07;;;;;;;18.67;90.23;102288.81;4953062;28;20479;-74
2023/09/14 09:37:53;;;;;;;15.32;9.82;;;;;;;18.70;87.03;102303.47;5031600;28;20041;-77
2023/09/14 09:40:21;;;;;;;16.75;9.38;;;;;;;18.83;89.21;102312.06;5031695;28;20061;-75
2023/09/14 09:43:03;;;;;;;13.93;9.02;;;;;;;18.89;91.17;102309.84;5031463;28;20022;-79
2023/09/14 09:45:29;;;;;;;11.13;6.30;;;;;;;18.87;87.87;102289.94;5031086;28;20026;-76
2023/09/14 09:47:54;;;;;;;9.48;5.32;;;;;;;19.04;85.40;102301.78;5031366;28;20028;-76
2023/09/14 09:50:21;;;;;;;13.50;8.05;;;;;;;18.87;82.03;102284.72;5030993;28;20773;-74
2023/09/14 09:52:48;;;;;;;12.85;8.23;;;;;;;19.08;85.84;102305.84;5031185;28;20025;-76
2023/09/14 09:55:23;;;;;;;10.60;7.00;;;;;;;19.13;81.11;102299.28;5031227;28;20022;-78
2023/09/14 09:57:59;;;;;;;11.02;6.18;;;;;;;19.14;80.11;102300.13;5031222;28;20109;-78
2023/09/14 10:00:31;;;;;;;14.07;6.07;;;;;;;19.18;78.27;102296.34;5030935;28;20064;-77
2023/09/14 10:02:57;;;;;;;10.43;5.78;;;;;;;19.33;82.15;102278.59;5030505;28;20030;-81
2023/09/14 10:05:36;;;;;;;9.52;5.68;;;;;;;19.35;81.52;102264.44;5030958;28;20021;-74
2023/09/14 10:08:02;;;;;;;11.77;4.88;;;;;;;19.58;74.81;102296.75;5031028;28;20025;-79
2023/09/14 10:10:32;;;;;;;10.27;5.85;;;;;;;19.64;78.56;102293.66;5079236;28;20031;-80
2023/09/14 10:13:00;;;;;;;10.70;6.10;;;;;;;19.64;80.41;102290.19;5115135;28;20047;-80
2023/09/14 10:15:27;;;;;;;11.68;6.07;;;;;;;19.67;78.20;102297.84;5114128;28;20023;-81
2023/09/14 10:17:57;;;;;;;11.45;7.85;;;;;;;19.77;79.40;102290.91;5095970;28;20037;-80
2023/09/14 10:20:23;;;;;;;10.20;6.18;;;;;;;19.96;79.21;102285.03;5113996;28;20070;-77
2023/09/14 10:22:49;;;;;;;10.35;6.70;;;;;;;19.79;74.04;102254.09;5114072;28;20020;-81
2023/09/14 10:25:16;;;;;;;10.38;5.50;;;;;;;19.93;74.15;102291.34;5114156;28;20095;-77
2023/09/14 10:27:48;;;;;;;11.68;6.70;;;;;;;19.73;74.24;102274.59;5113849;28;20437;-81
2023/09/14 10:30:18;;;;;;;9.13;4.30;;;;;;;19.85;76.36;102285.88;5114090;28;20028;-80
2023/09/14 10:32:47;;;;;;;10.70;5.20;;;;;;;19.64;75.97;102251.72;5114377;28;20023;-78
2023/09/14 10:35:13;;;;;;;9.98;5.50;;;;;;;19.62;72.84;102271.13;5113723;28;20052;-75
2023/09/14 10:37:42;;;;;;;12.02;6.15;;;;;;;19.64;74.10;102267.44;5113970;28;20070;-75
2023/09/14 10:40:22;;;;;;;11.07;6.00;;;;;;;19.69;73.96;102262.69;5113924;28;20063;-77
2023/09/14 10:42:47;;;;;;;12.73;4.82;;;;;;;20.01;76.97;102267.97;5113966;28;20445;-77
2023/09/14 10:45:13;;;;;;;9.88;6.05;;;;;;;20.21;76.12;102273.41;5114065;28;20024;-78
2023/09/14 10:47:44;;;;;;;10.43;5.88;;;;;;;20.17;70.10;102246.59;5113891;28;20079;-77
2023/09/14 10:50:11;;;;;;;11.15;5.20;;;;;;;20.28;71.89;102271.97;5113486;28;20473;-77
2023/09/14 10:52:37;;;;;;;7.72;4.65;;;;;;;20.45;70.82;102262.72;5113461;28;20106;-76
2023/09/14 10:55:07;;;;;;;9.50;5.45;;;;;;;20.35;65.18;102246.88;5113579;28;20024;-75
2023/09/14 10:57:35;;;;;;;9.57;5.38;;;;;;;20.57;68.53;102248.63;5113610;28;20027;-79
2023/09/14 11:00:04;;;;;;;10.07;5.28;;;;;;;20.74;64.18;102241.94;5113446;28;20476;-80
2023/09/14 11:02:52;;;;;;;9.77;4.72;;;;;;;21.06;68.53;102255.84;5095311;28;20373;-78
2023/09/14 11:05:26;;;;;;;9.35;4.82;;;;;;;20.88;65.31;102237.22;5113518;28;20043;-81
2023/09/14 11:07:59;;;;;;;9.50;3.92;;;;;;;20.95;65.55;102250.66;5113457;28;20816;-79
2023/09/14 11:10:29;;;;;;;9.60;4.22;;;;;;;21.01;66.93;102242.25;5113554;28;20116;-79
2023/09/14 11:13:24;;;;;;;8.80;3.97;;;;;;;21.26;68.04;102248.06;5095428;28;20496;-76
2023/09/14 11:16:07;;;;;;;9.75;4.03;;;;;;;21.26;65.41;102251.53;5113368;28;20011;-76
2023/09/14 11:18:58;;;;;;;7.82;3.95;;;;;;;21.20;66.71;102242.34;5113060;28;20028;-81
2023/09/14 11:21:33;;;;;;;9.00;4.40;;;;;;;21.31;63.17;102251.97;5113509;28;20028;-78
2023/09/14 11:23:59;;;;;;;7.65;3.85;;;;;;;21.31;62.96;102251.97;5113490;28;20380;-79
2023/09/14 11:26:31;;;;;;;5.60;3.50;;;;;;;21.37;63.10;102254.06;5113237;28;20457;-80
2023/09/14 11:29:00;;;;;;;9.98;4.20;;;;;;;21.29;60.30;102250.44;5112919;28;20515;-82
2023/09/14 11:31:34;;;;;;;9.60;4.30;;;;;;;21.22;62.60;102254.53;5113205;28;20031;-81
2023/09/14 11:34:12;;;;;;;6.70;3.50;;;;;;;21.09;62.21;102241.59;5112490;28;20135;-80
2023/09/14 11:36:37;;;;;;;7.40;4.20;;;;;;;21.12;60.82;102242.16;5113303;28;20020;-82